createdAt,value
2019-05-10T00:02:30.357Z,0.90
2019-05-10T00:07:53.981Z,1.10
2019-05-10T00:13:09.859Z,0.77
2019-05-10T00:18:14.103Z,1.10
2019-05-10T00:23:18.493Z,1.03
2019-05-10T00:28:22.856Z,1.17
2019-05-10T00:33:27.025Z,0.90
2019-05-10T00:38:31.279Z,0.93
2019-05-10T00:43:35.395Z,0.97
2019-05-10T00:48:39.512Z,0.80
2019-05-10T00:53:43.679Z,1.17
2019-05-10T00:58:47.786Z,0.93
2019-05-10T01:03:51.892Z,0.90
2019-05-10T01:08:56.844Z,1.00
2019-05-10T01:14:00.955Z,1.20
2019-05-10T01:19:05.136Z,1.00
2019-05-10T01:24:09.235Z,0.80
2019-05-10T01:29:14.896Z,0.90
2019-05-10T01:34:19.024Z,0.90
2019-05-10T01:39:23.373Z,1.50
2019-05-10T01:44:28.547Z,1.10
2019-05-10T01:49:32.651Z,1.10
2019-05-10T01:54:36.765Z,1.00
2019-05-10T01:59:41.123Z,0.83
2019-05-10T02:04:45.505Z,1.03
2019-05-10T02:09:49.633Z,1.00
2019-05-10T02:14:53.790Z,1.20
2019-05-10T02:20:00.512Z,1.40
2019-05-10T02:25:04.715Z,1.20
2019-05-10T02:30:10.486Z,1.07
2019-05-10T02:35:16.165Z,1.30
2019-05-10T02:40:20.342Z,1.00
2019-05-10T02:45:24.446Z,1.07
2019-05-10T02:50:28.560Z,1.10
2019-05-10T02:55:33.215Z,1.10
2019-05-10T03:00:38.877Z,1.40
2019-05-10T03:05:48.195Z,2.20
2019-05-10T03:10:56.156Z,1.50
2019-05-10T03:16:02.039Z,1.20
2019-05-10T03:21:07.989Z,1.30
2019-05-10T03:26:13.817Z,1.20
2019-05-10T03:31:17.965Z,1.23
2019-05-10T03:36:22.138Z,1.20
2019-05-10T03:41:26.311Z,1.17
2019-05-10T03:46:30.410Z,1.13
2019-05-10T03:51:34.516Z,1.30
2019-05-10T03:56:39.145Z,1.30
2019-05-10T04:01:43.285Z,1.37
2019-05-10T04:06:48.620Z,1.30
2019-05-10T04:11:52.691Z,1.23
2019-05-10T04:16:57.069Z,1.50
2019-05-10T04:22:01.480Z,1.40
2019-05-10T04:27:05.640Z,1.67
2019-05-10T04:32:11.370Z,1.30
2019-05-10T04:37:22.594Z,1.43
2019-05-10T04:42:28.528Z,1.30
2019-05-10T04:47:32.642Z,1.90
2019-05-10T04:52:37.739Z,1.63
2019-05-10T04:57:50.754Z,1.40
2019-05-10T05:02:47.943Z,1.60
2019-05-10T05:07:53.100Z,1.60
2019-05-10T05:12:57.189Z,1.40
2019-05-10T05:18:01.305Z,1.17
2019-05-10T05:23:07.047Z,1.37
2019-05-10T05:28:11.375Z,1.20
2019-05-10T05:33:16.829Z,1.80
2019-05-10T05:38:20.962Z,1.60
2019-05-10T05:43:25.305Z,1.63
2019-05-10T05:48:40.039Z,1.47
2019-05-10T05:53:42.323Z,1.60
2019-05-10T05:58:46.989Z,1.50
2019-05-10T06:03:50.897Z,1.80
2019-05-10T06:08:59.767Z,1.47
2019-05-10T06:14:09.701Z,1.70
2019-05-10T06:19:09.023Z,1.80
2019-05-10T06:24:15.753Z,1.70
2019-05-10T06:29:19.895Z,1.97
2019-05-10T06:34:24.089Z,2.00
2019-05-10T06:39:28.229Z,1.70
2019-05-10T06:44:33.179Z,2.07
2019-05-10T06:49:41.613Z,1.60
2019-05-10T06:54:44.950Z,1.97
2019-05-10T06:59:49.049Z,1.90
2019-05-10T07:04:53.169Z,2.30
2019-05-10T07:10:06.672Z,1.73
2019-05-10T07:15:05.505Z,1.60
2019-05-10T07:20:10.286Z,1.50
2019-05-10T07:25:17.002Z,1.67
2019-05-10T07:30:29.717Z,1.50
2019-05-10T07:35:38.650Z,1.47
2019-05-10T07:40:44.564Z,1.77
2019-05-10T07:45:49.238Z,1.47
2019-05-10T07:50:53.389Z,1.23
2019-05-10T07:55:59.847Z,1.60
2019-05-10T08:01:05.960Z,1.53
2019-05-10T08:06:10.030Z,1.60
2019-05-10T08:11:14.147Z,1.93
2019-05-10T08:16:22.724Z,1.60
2019-05-10T08:21:26.499Z,1.60
2019-05-10T08:26:32.833Z,1.53
2019-05-10T08:31:40.486Z,1.57
2019-05-10T08:36:47.708Z,1.50
2019-05-10T08:42:01.340Z,1.80
2019-05-10T08:46:57.419Z,1.60
2019-05-10T08:52:02.890Z,1.50
2019-05-10T08:57:07.289Z,1.20
2019-05-10T09:02:12.573Z,1.30
2019-05-10T09:07:17.689Z,1.00
2019-05-10T09:12:23.429Z,1.40
2019-05-10T09:17:28.499Z,1.40
2019-05-10T09:22:38.451Z,1.47
2019-05-10T09:27:40.022Z,1.27
2019-05-10T09:32:45.475Z,1.50
2019-05-10T09:37:53.935Z,1.33
2019-05-10T09:42:59.480Z,1.30
2019-05-10T09:48:04.743Z,1.50
2019-05-10T09:53:10.442Z,1.37
2019-05-10T09:58:21.711Z,1.60
2019-05-10T10:03:21.459Z,1.57
2019-05-10T10:08:28.285Z,1.33
2019-05-10T10:13:40.019Z,1.33
2019-05-10T10:18:38.744Z,1.30
2019-05-10T10:23:47.465Z,1.20
2019-05-10T10:28:55.126Z,1.20
2019-05-10T10:34:02.505Z,1.40
2019-05-10T10:39:07.378Z,1.60
2019-05-10T10:44:11.703Z,1.30
2019-05-10T10:49:17.804Z,1.23
2019-05-10T10:54:27.063Z,1.23
2019-05-10T10:59:27.744Z,1.03
2019-05-10T11:04:40.230Z,1.10
2019-05-10T11:09:40.837Z,1.40
2019-05-10T11:14:45.583Z,1.50
2019-05-10T11:19:49.881Z,1.20
2019-05-10T11:25:03.005Z,1.30
2019-05-10T11:30:00.912Z,0.97
2019-05-10T11:35:05.657Z,1.13
2019-05-10T11:40:11.287Z,1.10
2019-05-10T11:45:15.660Z,1.27
2019-05-10T11:50:28.962Z,1.30
2019-05-10T11:55:27.179Z,1.30
2019-05-10T12:00:34.365Z,1.27
2019-05-10T12:05:38.832Z,1.30
2019-05-10T12:15:51.777Z,1.03
2019-05-10T12:21:07.319Z,1.27
2019-05-10T12:26:31.062Z,0.80
2019-05-10T12:27:13.863Z,1.33
2019-05-10T12:31:15.237Z,0.83
2019-05-10T12:36:25.507Z,1.03
2019-05-10T12:41:23.446Z,1.10
2019-05-10T12:46:30.768Z,0.90
2019-05-10T12:51:34.982Z,0.80
2019-05-10T12:56:43.714Z,0.90
2019-05-10T13:01:44.919Z,0.87
2019-05-10T13:06:49.879Z,0.83
2019-05-10T13:12:03.138Z,1.00
2019-05-10T13:17:09.205Z,0.70
2019-05-10T13:22:12.751Z,0.93
2019-05-10T13:27:16.858Z,1.20
2019-05-10T13:32:22.416Z,1.07
2019-05-10T13:37:26.872Z,1.23
2019-05-10T13:42:36.480Z,1.00
2019-05-10T13:47:37.292Z,0.80
2019-05-10T13:52:41.674Z,0.93
2019-05-10T13:57:45.812Z,0.83
2019-05-10T14:02:49.972Z,1.00
2019-05-10T14:07:54.888Z,0.87
2019-05-10T14:13:02.400Z,0.80
2019-05-10T14:18:05.330Z,0.90
2019-05-10T14:23:12.792Z,0.87
2019-05-10T14:28:17.498Z,0.70
2019-05-10T14:33:21.899Z,1.00
2019-05-10T14:38:26.129Z,0.77
2019-05-10T14:43:30.416Z,0.80
2019-05-10T14:48:35.503Z,0.87
2019-05-10T14:53:41.458Z,0.80
2019-05-10T14:58:45.735Z,1.10
2019-05-10T15:03:49.886Z,0.90
2019-05-10T15:08:54.092Z,1.00
2019-05-10T15:13:58.751Z,0.90
2019-05-10T15:19:02.928Z,1.00
2019-05-10T15:24:10.152Z,0.80
2019-05-10T15:29:22.525Z,0.70
2019-05-10T15:34:23.289Z,0.90
2019-05-10T15:39:28.979Z,0.80
2019-05-10T15:44:33.976Z,0.60
2019-05-10T15:49:38.524Z,0.90
2019-05-10T15:54:47.221Z,0.70
2019-05-10T15:59:57.221Z,0.80
2019-05-10T16:04:58.801Z,0.83
2019-05-10T16:10:03.037Z,1.10
2019-05-10T16:15:07.324Z,0.63
2019-05-10T16:20:11.777Z,0.90
2019-05-10T16:25:17.035Z,1.00
2019-05-10T16:30:21.226Z,0.70
2019-05-10T16:35:38.337Z,0.90
2019-05-10T16:40:36.970Z,1.30
2019-05-10T16:45:41.364Z,0.90
2019-05-10T16:50:45.750Z,0.90
2019-05-10T16:55:49.871Z,1.10
2019-05-10T17:00:54.239Z,1.00
2019-05-10T17:06:04.169Z,1.00
2019-05-10T17:11:10.389Z,0.90
2019-05-10T17:16:16.997Z,0.97
2019-05-10T17:21:18.581Z,0.90
2019-05-10T17:26:22.752Z,0.90
2019-05-10T17:31:27.579Z,1.03
2019-05-10T17:36:31.709Z,1.17
2019-05-10T17:41:36.488Z,1.40
2019-05-10T17:46:40.899Z,1.70
2019-05-10T17:51:45.180Z,1.37
2019-05-10T17:56:50.546Z,1.40
2019-05-10T18:01:54.961Z,1.20
2019-05-10T18:06:59.421Z,0.90
2019-05-10T18:12:04.017Z,1.13
2019-05-10T18:17:08.150Z,1.20
2019-05-10T18:22:12.260Z,0.90
2019-05-10T18:27:16.412Z,1.00
2019-05-10T18:32:21.286Z,1.07
2019-05-10T18:37:25.386Z,1.00
2019-05-10T18:42:29.556Z,1.07
2019-05-10T18:47:34.982Z,1.20
2019-05-10T18:52:39.092Z,1.07
2019-05-10T18:57:45.241Z,1.30
2019-05-10T19:02:49.671Z,1.00
2019-05-10T19:08:03.115Z,0.90
2019-05-10T19:13:03.922Z,1.00
2019-05-10T19:18:06.438Z,1.00
2019-05-10T19:23:13.155Z,0.87
2019-05-10T19:28:21.017Z,1.00
2019-05-10T19:33:29.600Z,0.80
2019-05-10T19:38:34.946Z,1.10
2019-05-10T19:43:38.999Z,1.13
2019-05-10T19:48:43.369Z,1.20
2019-05-10T19:53:48.449Z,1.07
2019-05-10T19:58:52.628Z,1.20
2019-05-10T20:03:56.735Z,1.03
2019-05-10T20:09:01.813Z,1.13
2019-05-10T20:14:07.664Z,1.00
2019-05-10T20:19:13.602Z,1.20
2019-05-10T20:24:17.717Z,1.00
2019-05-10T20:29:22.328Z,1.10
2019-05-10T20:34:26.429Z,1.33
2019-05-10T20:39:32.043Z,1.03
2019-05-10T20:44:38.037Z,1.10
2019-05-10T20:49:42.180Z,1.20
2019-05-10T20:54:46.548Z,1.40
2019-05-10T20:59:53.691Z,1.50
2019-05-10T21:04:58.383Z,1.30
2019-05-10T21:10:02.531Z,1.30
2019-05-10T21:15:06.899Z,1.50
2019-05-10T21:20:15.841Z,1.40
2019-05-10T21:25:17.333Z,1.47
2019-05-10T21:30:21.541Z,1.23
2019-05-10T21:35:25.900Z,1.20
2019-05-10T21:40:31.240Z,1.20
2019-05-10T21:45:35.658Z,1.30
2019-05-10T21:50:40.599Z,1.50
2019-05-10T21:55:47.222Z,0.97
2019-05-10T22:00:52.848Z,1.37
2019-05-10T22:06:01.940Z,1.40
2019-05-10T22:11:06.140Z,1.20
2019-05-10T22:16:11.830Z,1.50
2019-05-10T22:21:15.932Z,1.40
2019-05-10T22:26:23.580Z,1.30
2019-05-10T22:31:27.702Z,1.70
2019-05-10T22:36:31.811Z,1.57
2019-05-10T22:41:36.172Z,1.40
2019-05-10T22:46:42.024Z,1.70
2019-05-10T22:51:47.080Z,1.53
2019-05-10T22:56:51.179Z,1.63
2019-05-10T23:01:55.276Z,1.87
2019-05-10T23:07:00.394Z,1.90
2019-05-10T23:12:04.460Z,1.83
2019-05-10T23:17:08.648Z,1.40
2019-05-10T23:22:13.088Z,1.70
2019-05-10T23:27:17.592Z,1.77
2019-05-10T23:32:24.999Z,1.97
2019-05-10T23:37:29.098Z,2.17
2019-05-10T23:42:35.014Z,2.20
2019-05-10T23:47:39.359Z,2.03
2019-05-10T23:52:43.960Z,2.00
2019-05-10T23:57:48.077Z,2.00
